Time;durP1;ratioP1;P1;durP2;ratioP2;P2;SDS_P1;SDS_P2;PMS_P1;PMS_P2;Temp;Humidity;BMP_temperature;BMP_pressure;BME280_temperature;BME280_humidity;BME280_pressure;Samples;Min_cycle;Max_cycle;Signal;HPM_P1;HPM_P2
2023/01/26 00:00:29;;;;;;;14.20;9.87;;;;;;;2.14;84.22;95986.34;6184465;23;20745;-87
2023/01/26 00:02:58;;;;;;;13.83;9.50;;;;;;;2.13;84.88;95977.09;6185163;23;20196;-87
2023/01/26 00:05:24;;;;;;;15.47;9.80;;;;;;;2.19;84.67;95970.75;6185409;23;20208;-87
2023/01/26 00:07:51;;;;;;;13.27;10.00;;;;;;;2.26;84.37;95966.84;6183520;23;20190;-87
2023/01/26 00:10:17;;;;;;;14.73;9.60;;;;;;;2.24;83.68;95973.75;6183633;23;20195;-87
2023/01/26 00:12:44;;;;;;;14.20;9.93;;;;;;;2.25;84.27;95970.31;6183267;23;20178;-87
2023/01/26 00:15:12;;;;;;;14.23;8.83;;;;;;;2.17;82.84;95964.97;6185087;23;20630;-87
2023/01/26 00:17:38;;;;;;;13.20;9.70;;;;;;;2.20;83.96;95959.66;6185465;23;20201;-87
2023/01/26 00:20:09;;;;;;;16.33;9.53;;;;;;;2.21;84.15;95954.47;6186084;23;20178;-87
2023/01/26 00:22:35;;;;;;;15.47;10.07;;;;;;;2.14;84.09;95947.44;6186353;23;20185;-88
2023/01/26 00:25:01;;;;;;;15.43;10.27;;;;;;;2.05;84.13;95947.22;6186987;23;20174;-88
2023/01/26 00:27:28;;;;;;;13.93;10.00;;;;;;;2.09;84.92;95945.25;6185370;23;20225;-88
2023/01/26 00:29:56;;;;;;;14.13;10.10;;;;;;;2.14;84.65;95945.69;6187398;23;20183;-88
2023/01/26 00:32:24;;;;;;;14.47;10.10;;;;;;;2.20;84.18;95950.31;6185239;23;20655;-86
2023/01/26 00:34:58;;;;;;;15.10;9.87;;;;;;;2.21;83.98;95951.94;6185366;23;20642;-87
2023/01/26 00:37:25;;;;;;;13.80;10.20;;;;;;;2.26;84.19;95947.31;6186614;23;20709;-87
2023/01/26 00:39:51;;;;;;;14.83;9.33;;;;;;;2.13;83.51;95953.44;6188226;23;20174;-88
2023/01/26 00:42:17;;;;;;;14.77;10.37;;;;;;;2.15;84.02;95949.03;6185294;23;20174;-87
2023/01/26 00:44:44;;;;;;;14.70;10.00;;;;;;;2.17;83.81;95954.81;6185446;23;20181;-88
2023/01/26 00:47:12;;;;;;;12.97;9.27;;;;;;;2.21;83.85;95949.41;6185219;23;20205;-86
2023/01/26 00:49:40;;;;;;;13.87;10.40;;;;;;;1.92;83.63;95946.53;6185727;23;20789;-88
2023/01/26 00:52:08;;;;;;;13.93;10.03;;;;;;;1.95;84.17;95941.19;6185652;23;20170;-88
2023/01/26 00:54:35;;;;;;;12.20;9.13;;;;;;;1.96;83.22;95942.00;6185791;23;20198;-87
2023/01/26 00:57:04;;;;;;;13.83;9.63;;;;;;;1.98;83.63;95946.03;6187781;23;20225;-88
2023/01/26 00:59:31;;;;;;;14.13;10.33;;;;;;;2.04;83.81;95935.44;6189085;23;20232;-87
2023/01/26 01:01:58;;;;;;;15.93;10.83;;;;;;;2.09;84.34;95930.00;6187597;23;20236;-87
2023/01/26 01:04:28;;;;;;;15.43;10.33;;;;;;;2.14;84.30;95933.00;6186831;23;20174;-87
2023/01/26 01:06:56;;;;;;;14.87;10.57;;;;;;;2.13;84.29;95938.19;6187669;23;20206;-88
2023/01/26 01:09:23;;;;;;;12.33;9.57;;;;;;;2.11;83.15;95935.78;6187672;23;20198;-89
2023/01/26 01:11:49;;;;;;;14.77;10.37;;;;;;;2.12;83.50;95932.31;6186863;23;20174;-87
2023/01/26 01:14:19;;;;;;;16.43;11.53;;;;;;;2.08;83.38;95928.41;6187628;23;20192;-87
2023/01/26 01:16:47;;;;;;;15.30;10.80;;;;;;;2.07;83.23;95922.50;6187388;23;20209;-87
2023/01/26 01:19:18;;;;;;;16.10;11.20;;;;;;;2.09;83.99;95932.56;6187401;23;20189;-88
2023/01/26 01:21:45;;;;;;;14.07;10.53;;;;;;;2.04;83.77;95929.56;6186955;23;20178;-88
2023/01/26 01:24:13;;;;;;;13.13;9.50;;;;;;;2.04;83.32;95937.16;6186764;23;20258;-88
2023/01/26 01:26:40;;;;;;;14.60;10.77;;;;;;;1.90;84.21;95929.78;6186972;23;20204;-87
2023/01/26 01:29:10;;;;;;;17.23;12.13;;;;;;;1.90;84.63;95932.31;6186404;23;20189;-88
2023/01/26 01:31:36;;;;;;;16.57;11.67;;;;;;;1.92;84.57;95928.75;6187073;23;20185;-88
2023/01/26 01:34:04;;;;;;;16.93;11.37;;;;;;;1.96;84.21;95931.84;6187225;23;20182;-88
2023/01/26 01:36:33;;;;;;;13.53;10.73;;;;;;;1.93;83.77;95932.06;6185767;23;20677;-87
2023/01/26 01:39:04;;;;;;;15.90;11.23;;;;;;;1.89;83.81;95920.56;6187295;23;20521;-87
2023/01/26 01:41:32;;;;;;;17.53;11.13;;;;;;;1.92;83.90;95928.75;6185892;23;20175;-87
2023/01/26 01:44:17;;;;;;;17.43;11.20;;;;;;;1.96;83.86;95930.13;6187387;23;20257;-87
2023/01/26 01:46:48;;;;;;;15.80;11.03;;;;;;;2.01;84.43;95929.78;6187190;23;20197;-87
2023/01/26 01:49:19;;;;;;;17.70;11.80;;;;;;;2.01;85.06;95928.03;6187456;23;20245;-88
2023/01/26 01:51:51;;;;;;;18.57;12.77;;;;;;;2.05;85.42;95929.44;6186695;23;20171;-88
2023/01/26 01:54:24;;;;;;;20.63;12.73;;;;;;;2.05;85.58;95921.00;6186715;23;20163;-88
2023/01/26 01:56:55;;;;;;;18.30;12.07;;;;;;;2.02;85.82;95924.59;6186025;23;20198;-88
2023/01/26 01:59:22;;;;;;;20.83;13.20;;;;;;;1.96;85.84;95929.31;6186533;23;20158;-87
2023/01/26 02:01:51;;;;;;;21.30;12.80;;;;;;;1.97;86.12;95920.78;6186019;23;20240;-87
2023/01/26 02:04:20;;;;;;;20.00;13.50;;;;;;;1.99;86.10;95917.19;6185485;23;20174;-87
2023/01/26 02:06:49;;;;;;;18.90;12.00;;;;;;;2.02;86.16;95923.78;6186266;23;20198;-87
2023/01/26 02:12:03;;;;;;;18.50;12.20;;;;;;;2.10;85.61;95916.41;6183736;23;20179;-87
2023/01/26 02:14:30;;;;;;;19.23;11.53;;;;;;;2.11;85.33;95918.00;6185609;23;20257;-87
2023/01/26 02:16:56;;;;;;;17.93;12.00;;;;;;;2.16;85.11;95915.09;6185461;23;20225;-88
2023/01/26 02:19:45;;;;;;;20.30;12.30;;;;;;;2.12;85.21;95911.22;6185718;23;20257;-87
2023/01/26 02:22:23;;;;;;;16.67;11.30;;;;;;;2.16;85.12;95904.94;6186098;23;20225;-88
2023/01/26 02:24:50;;;;;;;19.10;12.40;;;;;;;2.01;85.20;95899.31;6186610;23;20506;-86
2023/01/26 02:27:18;;;;;;;17.87;12.07;;;;;;;2.04;85.81;95901.63;6185663;23;20194;-88
2023/01/26 02:29:45;;;;;;;16.73;11.70;;;;;;;2.07;86.00;95893.78;6155006;23;20183;-87
2023/01/26 02:32:11;;;;;;;21.13;12.73;;;;;;;2.06;85.65;95892.16;6155501;23;20175;-88
2023/01/26 02:34:41;;;;;;;18.47;11.60;;;;;;;2.11;85.31;95891.81;6155664;23;20174;-87
2023/01/26 02:37:16;;;;;;;17.80;11.40;;;;;;;2.13;85.48;95883.13;6154261;23;20199;-88
2023/01/26 02:39:51;;;;;;;21.07;12.70;;;;;;;2.15;84.95;95883.81;6155132;23;20163;-88
2023/01/26 02:45:07;;;;;;;18.83;12.07;;;;;;;2.19;84.30;95871.69;6156994;23;20167;-88
2023/01/26 02:47:36;;;;;;;17.07;11.27;;;;;;;2.12;84.04;95868.81;6157348;23;20195;-88
2023/01/26 02:50:02;;;;;;;19.23;11.97;;;;;;;1.98;84.41;95859.72;6156709;23;20221;-87
2023/01/26 02:52:30;;;;;;;15.90;10.93;;;;;;;2.00;84.83;95859.59;6156823;23;20179;-87
2023/01/26 02:57:59;;;;;;;15.30;10.17;;;;;;;2.02;84.59;95856.03;6067320;23;20264;-88
2023/01/26 03:00:27;;;;;;;15.67;11.13;;;;;;;2.00;84.68;95849.44;6068954;23;20290;-88
2023/01/26 03:02:56;;;;;;;19.30;11.47;;;;;;;1.94;85.07;95849.91;6108624;23;20213;-87
2023/01/26 03:05:22;;;;;;;17.30;11.50;;;;;;;1.95;85.55;95842.16;6155914;23;20175;-87
2023/01/26 03:07:49;;;;;;;18.90;12.80;;;;;;;1.99;85.11;95841.03;6155891;23;20217;-88
2023/01/26 03:10:17;;;;;;;16.47;11.10;;;;;;;2.04;84.61;95844.03;6155731;23;20297;-87
2023/01/26 03:12:43;;;;;;;16.50;11.87;;;;;;;2.11;84.48;95841.03;6155336;23;20221;-87
2023/01/26 03:29:00;;;;;;;17.53;11.30;;;;;;;2.02;83.56;95834.91;6177572;23;20189;-88
2023/01/26 03:31:28;;;;;;;17.90;11.40;;;;;;;2.04;83.94;95838.94;6186268;23;20682;-87
2023/01/26 03:33:55;;;;;;;17.40;11.07;;;;;;;2.07;83.90;95833.63;6187634;23;20185;-87
2023/01/26 03:36:21;;;;;;;17.93;11.93;;;;;;;2.08;83.32;95835.25;6187158;23;20202;-88
2023/01/26 03:38:47;;;;;;;16.90;11.40;;;;;;;1.99;83.27;95833.41;6186370;23;20178;-88
2023/01/26 03:57:41;;;;;;;16.43;11.03;;;;;;;1.94;83.99;95829.59;6187488;23;20201;-88
2023/01/26 04:00:09;;;;;;;16.47;10.73;;;;;;;1.90;84.48;95834.13;6187417;23;20513;-87
2023/01/26 04:08:22;;;;;;;16.63;10.67;;;;;;;1.98;84.39;95834.31;6189390;23;20233;-87
2023/01/26 04:10:50;;;;;;;16.23;10.57;;;;;;;1.98;84.20;95831.78;6188217;23;20236;-87
2023/01/26 04:21:32;;;;;;;15.97;10.53;;;;;;;2.02;84.08;95817.13;6184663;23;20209;-87
2023/01/26 04:24:08;;;;;;;14.63;9.97;;;;;;;2.02;84.02;95820.47;6184799;23;20546;-88
2023/01/26 04:26:35;;;;;;;17.17;10.53;;;;;;;2.01;83.50;95815.50;6186297;23;20225;-87
2023/01/26 04:29:02;;;;;;;16.97;10.67;;;;;;;1.89;83.12;95807.13;6186018;23;20186;-86
2023/01/26 04:31:28;;;;;;;15.17;10.30;;;;;;;1.81;83.28;95806.88;6184848;23;20198;-87
2023/01/26 04:33:56;;;;;;;16.63;10.77;;;;;;;1.86;84.03;95816.69;6185169;23;20185;-87
2023/01/26 04:36:27;;;;;;;15.80;10.63;;;;;;;1.89;84.27;95814.75;6184360;23;20201;-88
2023/01/26 04:38:53;;;;;;;14.87;9.97;;;;;;;1.96;84.21;95812.50;6185780;23;20785;-88
2023/01/26 04:41:20;;;;;;;14.70;9.93;;;;;;;1.95;83.84;95808.34;6187165;23;20615;-88
2023/01/26 04:43:46;;;;;;;18.57;11.43;;;;;;;1.91;83.47;95804.47;6186475;23;20391;-89
2023/01/26 04:46:13;;;;;;;16.33;11.20;;;;;;;1.96;83.80;95812.50;6186875;23;20201;-86
2023/01/26 04:48:42;;;;;;;15.30;10.70;;;;;;;1.98;83.53;95808.13;6186387;23;20794;-87
2023/01/26 04:51:12;;;;;;;15.13;11.00;;;;;;;2.00;83.42;95799.47;6185458;23;20198;-87
2023/01/26 04:53:39;;;;;;;16.40;10.70;;;;;;;2.02;83.50;95801.88;6187012;23;20889;-86
2023/01/26 04:56:07;;;;;;;18.27;11.10;;;;;;;2.05;83.25;95804.19;6186240;23;20195;-87
2023/01/26 04:58:36;;;;;;;14.90;10.40;;;;;;;2.10;83.04;95799.56;6183597;23;20184;-88
2023/01/26 05:01:06;;;;;;;15.87;10.83;;;;;;;2.12;82.63;95804.53;6184032;23;20672;-87
2023/01/26 05:03:32;;;;;;;15.50;10.20;;;;;;;2.14;82.96;95805.19;6185463;23;20174;-88
2023/01/26 05:06:13;;;;;;;15.30;10.30;;;;;;;2.25;95.71;95807.72;6185062;23;20179;-89
2023/01/26 05:08:41;;;;;;;15.63;11.43;;;;;;;2.43;87.73;95812.16;6185253;23;20234;-85
2023/01/26 05:11:08;;;;;;;16.27;10.53;;;;;;;2.33;82.26;95807.91;6183804;23;20281;-87
2023/01/26 05:13:36;;;;;;;16.27;10.63;;;;;;;2.29;83.24;95814.19;6183434;23;20178;-88
2023/01/26 05:16:15;;;;;;;15.63;10.73;;;;;;;2.26;82.78;95806.81;6183546;23;20662;-87
2023/01/26 05:18:43;;;;;;;15.13;10.40;;;;;;;2.20;82.63;95808.09;6183470;23;20493;-88
2023/01/26 05:21:11;;;;;;;16.33;10.60;;;;;;;2.20;82.88;95804.72;6184579;23;20170;-87
2023/01/26 05:23:37;;;;;;;17.43;11.00;;;;;;;2.21;82.90;95811.44;6185148;23;20474;-86
2023/01/26 05:26:05;;;;;;;18.33;11.43;;;;;;;2.24;82.17;95814.53;6184921;23;20194;-86
2023/01/26 05:28:32;;;;;;;15.53;11.00;;;;;;;2.05;81.89;95806.75;6184046;23;20186;-85
2023/01/26 05:30:58;;;;;;;14.87;10.37;;;;;;;2.08;82.83;95812.38;6182957;23;20218;-85
2023/01/26 05:33:27;;;;;;;15.10;10.27;;;;;;;2.08;82.74;95807.31;6183738;23;20174;-87
2023/01/26 05:35:54;;;;;;;16.63;10.83;;;;;;;2.10;83.01;95802.13;6184238;23;20209;-87
2023/01/26 05:38:20;;;;;;;14.60;10.17;;;;;;;1.91;82.23;95807.00;6184250;23;20178;-87
2023/01/26 05:40:49;;;;;;;15.17;10.53;;;;;;;1.93;83.50;95810.22;6186015;23;20178;-90
2023/01/26 05:43:17;;;;;;;16.97;10.80;;;;;;;1.92;83.48;95804.34;6184876;23;20174;-90
2023/01/26 05:45:44;;;;;;;15.57;10.70;;;;;;;1.92;83.54;95813.69;6184516;23;20181;-88
2023/01/26 05:48:10;;;;;;;15.33;10.67;;;;;;;1.93;83.50;95805.94;6183592;23;20650;-88
2023/01/26 05:50:39;;;;;;;15.90;10.87;;;;;;;1.98;83.39;95801.31;6184430;23;20274;-88
2023/01/26 05:53:08;;;;;;;15.40;10.37;;;;;;;1.85;83.38;95807.47;6181883;23;20185;-89
2023/01/26 05:55:36;;;;;;;15.73;10.67;;;;;;;1.87;83.77;95805.63;6182897;23;20174;-89
2023/01/26 05:58:03;;;;;;;15.50;10.07;;;;;;;1.84;83.15;95814.28;6184238;23;20252;-89
2023/01/26 06:00:34;;;;;;;17.07;10.93;;;;;;;1.90;83.90;95813.00;6186172;23;20177;-88
2023/01/26 06:03:00;;;;;;;16.87;11.00;;;;;;;1.98;83.22;95813.22;6186539;23;20431;-89
2023/01/26 06:05:29;;;;;;;15.97;10.73;;;;;;;1.97;83.10;95811.59;6185881;23;20205;-89
2023/01/26 06:07:55;;;;;;;18.10;11.40;;;;;;;2.02;83.38;95817.13;6185710;23;20204;-89
2023/01/26 06:10:22;;;;;;;15.43;10.40;;;;;;;2.06;82.73;95811.69;6183698;23;20174;-89
2023/01/26 06:12:50;;;;;;;14.50;10.10;;;;;;;2.06;82.63;95821.84;6184407;23;20178;-88
2023/01/26 06:15:27;;;;;;;17.93;10.83;;;;;;;1.93;86.83;95825.44;6184286;23;20179;-89
2023/01/26 06:17:55;;;;;;;15.43;11.07;;;;;;;1.99;85.23;95817.34;6194816;23;20197;-89
2023/01/26 06:20:23;;;;;;;15.83;11.20;;;;;;;2.08;84.32;95822.56;6186814;23;20197;-89
2023/01/26 06:22:50;;;;;;;16.53;10.97;;;;;;;2.12;83.63;95820.56;6184783;23;20668;-89
2023/01/26 06:25:19;;;;;;;16.40;10.83;;;;;;;2.15;82.84;95810.16;6185817;23;20265;-89
2023/01/26 06:27:46;;;;;;;16.60;10.87;;;;;;;2.08;82.47;95812.38;6186671;23;20237;-88
2023/01/26 06:30:28;;;;;;;16.27;11.10;;;;;;;2.02;82.36;95806.97;6186191;23;20221;-88
2023/01/26 06:32:58;;;;;;;22.83;13.30;;;;;;;1.95;96.93;95811.72;6186717;23;20158;-88
2023/01/26 06:35:28;;;;;;;18.73;11.83;;;;;;;1.90;93.69;95815.53;6185226;23;20158;-90
2023/01/26 06:37:54;;;;;;;19.63;12.00;;;;;;;1.95;89.06;95810.91;6186712;23;20194;-90
2023/01/26 06:40:51;;;;;;;33.23;23.67;;;;;;;2.08;84.86;95816.66;6186108;23;20174;-89
2023/01/26 06:43:18;;;;;;;56.20;38.43;;;;;;;2.10;84.08;95814.00;6183160;23;20216;-89
2023/01/26 06:45:48;;;;;;;19.77;14.47;;;;;;;2.10;82.90;95811.47;6185003;23;20210;-89
2023/01/26 06:48:20;;;;;;;17.67;12.67;;;;;;;2.08;82.91;95814.94;6185968;23;20206;-90
2023/01/26 06:50:57;;;;;;;17.20;11.47;;;;;;;2.09;82.72;95813.19;6185115;23;20277;-88
2023/01/26 06:53:33;;;;;;;16.33;10.83;;;;;;;2.10;82.96;95811.47;6184893;23;20162;-90
2023/01/26 06:56:00;;;;;;;14.63;10.43;;;;;;;2.06;81.84;95809.16;6184576;23;20162;-89
2023/01/26 06:58:26;;;;;;;13.80;9.70;;;;;;;2.10;81.62;95806.38;6185439;23;20182;-87
2023/01/26 07:00:53;;;;;;;15.50;10.37;;;;;;;2.05;81.65;95805.00;6183670;23;20177;-90
2023/01/26 07:03:21;;;;;;;16.00;10.77;;;;;;;2.08;81.93;95799.69;6184532;23;20185;-89
2023/01/26 07:05:53;;;;;;;13.47;10.17;;;;;;;2.12;81.45;95802.00;6184492;23;20212;-91
2023/01/26 07:08:19;;;;;;;15.37;10.53;;;;;;;2.15;81.67;95807.63;6184408;23;20173;-88
2023/01/26 07:10:50;;;;;;;15.40;10.80;;;;;;;2.16;81.63;95805.88;6187613;23;20205;-86
2023/01/26 07:13:20;;;;;;;16.33;11.00;;;;;;;2.07;81.17;95795.53;6186997;23;20158;-87
2023/01/26 07:15:46;;;;;;;16.60;11.17;;;;;;;2.08;81.67;95803.97;6188932;23;20185;-87
2023/01/26 07:18:15;;;;;;;15.93;11.53;;;;;;;2.11;82.17;95803.72;6189674;23;20201;-88
2023/01/26 07:20:45;;;;;;;16.77;11.60;;;;;;;2.11;81.89;95800.38;6188845;23;20206;-86
2023/01/26 07:23:13;;;;;;;31.67;22.97;;;;;;;2.09;81.43;95803.03;6188178;23;20178;-87
2023/01/26 07:25:52;;;;;;;83.60;56.70;;;;;;;2.05;82.31;95794.84;6191173;23;20208;-87
2023/01/26 07:28:24;;;;;;;39.60;27.53;;;;;;;2.10;82.03;95807.19;6191328;23;20220;-87
2023/01/26 07:30:51;;;;;;;19.63;14.27;;;;;;;2.00;81.94;95798.66;6191780;23;20208;-86
2023/01/26 07:33:28;;;;;;;18.13;12.10;;;;;;;1.98;82.29;95798.78;6192481;23;20181;-87
2023/01/26 07:35:56;;;;;;;17.83;12.23;;;;;;;2.01;82.00;95803.63;6190721;23;20177;-86
2023/01/26 07:38:27;;;;;;;17.17;11.67;;;;;;;2.05;82.10;95804.19;6190341;23;20208;-86
2023/01/26 07:44:27;;;;;;;;;;;;;;;;;;;;;
2023/01/26 07:46:57;;;;;;;16.57;11.27;;;;;;;1.94;82.59;95799.13;6193721;23;20189;-87
2023/01/26 07:49:26;;;;;;;18.57;11.23;;;;;;;2.00;82.40;95799.47;6191426;23;20189;-86
2023/01/26 07:51:54;;;;;;;17.67;10.30;;;;;;;1.92;82.10;95793.38;6192043;23;20276;-88
2023/01/26 07:54:21;;;;;;;16.03;11.10;;;;;;;1.92;82.37;95791.66;6189668;23;20179;-88
2023/01/26 07:56:53;;;;;;;14.80;10.80;;;;;;;1.92;82.52;95786.59;6190541;23;20198;-88
2023/01/26 07:59:20;;;;;;;16.13;10.70;;;;;;;1.90;82.52;95782.53;6190309;23;20178;-88
2023/01/26 08:01:51;;;;;;;17.33;11.70;;;;;;;1.80;82.48;95786.69;6189495;23;20170;-89
2023/01/26 08:04:18;;;;;;;18.33;11.83;;;;;;;1.76;83.48;95793.72;6190360;23;20169;-89
2023/01/26 08:06:52;;;;;;;15.30;10.40;;;;;;;1.74;83.82;95788.78;6189336;23;20202;-89
2023/01/26 08:09:31;;;;;;;17.10;11.63;;;;;;;1.82;83.45;95789.94;6188969;23;20174;-86
2023/01/26 08:11:58;;;;;;;15.07;10.60;;;;;;;1.86;82.96;95788.78;6189787;23;20186;-89
2023/01/26 08:14:32;;;;;;;15.80;10.80;;;;;;;1.92;82.77;95784.03;6190079;23;20178;-85
2023/01/26 08:16:59;;;;;;;17.47;10.43;;;;;;;1.91;82.22;95781.63;6188061;23;20198;-88
2023/01/26 08:19:30;;;;;;;15.70;10.83;;;;;;;2.01;82.19;95780.78;6187942;23;20222;-88
2023/01/26 08:22:02;;;;;;;13.23;9.47;;;;;;;2.03;81.93;95781.47;6188578;23;20229;-89
2023/01/26 08:24:30;;;;;;;16.80;10.90;;;;;;;2.06;81.23;95773.59;6191446;23;20166;-88
2023/01/26 08:26:57;;;;;;;14.87;10.30;;;;;;;2.05;81.56;95769.47;6191028;23;20194;-88
2023/01/26 08:29:23;;;;;;;14.67;10.30;;;;;;;2.00;81.84;95770.72;6190280;23;20649;-88
2023/01/26 08:31:50;;;;;;;14.90;10.10;;;;;;;2.04;82.23;95770.38;6189099;23;20198;-88
2023/01/26 08:34:16;;;;;;;17.53;11.27;;;;;;;2.06;81.40;95770.25;6188223;23;20289;-86
2023/01/26 08:36:45;;;;;;;16.07;11.13;;;;;;;2.11;81.03;95769.91;6192796;23;20685;-85
2023/01/26 08:39:12;;;;;;;16.77;11.20;;;;;;;2.08;80.57;95773.50;6192587;23;20174;-88
2023/01/26 08:41:40;;;;;;;15.10;10.30;;;;;;;2.07;80.90;95769.34;6189634;23;20208;-87
2023/01/26 08:44:06;;;;;;;15.37;11.10;;;;;;;2.10;80.70;95774.19;6190170;23;20789;-88
2023/01/26 08:46:39;;;;;;;16.73;10.93;;;;;;;2.02;81.57;95774.78;6190874;23;20596;-88
2023/01/26 08:49:10;;;;;;;15.47;11.10;;;;;;;2.05;81.33;95773.72;6189671;23;20162;-89
2023/01/26 08:51:38;;;;;;;16.40;10.97;;;;;;;2.08;81.29;95769.22;6188341;23;20221;-89
2023/01/26 08:54:08;;;;;;;20.07;12.97;;;;;;;2.10;80.70;95764.03;6189523;23;20185;-89
2023/01/26 08:56:54;;;;;;;24.47;18.13;;;;;;;2.14;80.83;95777.25;6189126;23;20198;-89
2023/01/26 08:59:20;;;;;;;22.60;15.80;;;;;;;2.21;80.32;95768.25;6186607;23;20830;-90
2023/01/26 09:01:50;;;;;;;16.90;11.43;;;;;;;2.24;80.55;95775.63;6182044;23;20185;-89
2023/01/26 09:04:17;;;;;;;17.40;12.07;;;;;;;2.17;80.52;95775.28;6188359;23;20174;-89
2023/01/26 09:06:44;;;;;;;17.07;11.87;;;;;;;2.21;80.10;95771.59;6189139;23;20244;-88
2023/01/26 09:09:12;;;;;;;16.17;11.13;;;;;;;2.24;80.61;95773.09;6188146;23;20198;-88
2023/01/26 09:11:39;;;;;;;16.23;10.70;;;;;;;2.27;80.06;95772.84;6189114;23;20187;-87
2023/01/26 09:14:12;;;;;;;16.03;10.97;;;;;;;2.23;79.36;95772.28;6190252;23;20177;-88
2023/01/26 09:16:43;;;;;;;15.43;10.10;;;;;;;2.24;79.60;95771.34;6190835;23;20609;-87
2023/01/26 09:19:13;;;;;;;15.37;10.63;;;;;;;2.27;80.23;95773.66;6190373;23;20175;-87
2023/01/26 09:21:40;;;;;;;14.73;10.63;;;;;;;2.24;79.80;95781.53;6188994;23;20159;-87
2023/01/26 09:24:12;;;;;;;16.27;11.23;;;;;;;2.25;79.58;95779.78;6188671;23;20273;-87
2023/01/26 09:26:41;;;;;;;17.57;11.13;;;;;;;2.28;79.86;95772.72;6188405;23;20200;-88
2023/01/26 09:29:12;;;;;;;17.70;10.67;;;;;;;2.13;79.98;95781.53;6189267;23;20249;-87
2023/01/26 09:31:39;;;;;;;14.43;10.23;;;;;;;2.14;79.94;95783.16;6188931;23;20198;-87
2023/01/26 09:34:06;;;;;;;13.20;9.83;;;;;;;2.21;80.01;95779.22;6188426;23;20201;-88
2023/01/26 09:36:33;;;;;;;15.27;10.47;;;;;;;2.24;79.59;95790.88;6187609;23;20202;-86
2023/01/26 09:39:07;;;;;;;22.17;15.97;;;;;;;2.21;79.23;95784.28;6188374;23;20257;-87
2023/01/26 09:41:59;;;;;;;23.20;16.00;;;;;;;2.19;78.72;95783.59;6190082;23;20688;-89
2023/01/26 09:44:34;;;;;;;18.40;12.00;;;;;;;2.22;78.73;95782.56;6190841;23;20155;-88
2023/01/26 09:47:25;;;;;;;14.47;10.57;;;;;;;2.24;79.27;95783.25;6188933;23;20272;-88
2023/01/26 09:50:01;;;;;;;15.37;10.00;;;;;;;2.25;78.86;95790.75;6189373;23;20183;-88
2023/01/26 09:52:33;;;;;;;14.73;10.33;;;;;;;2.19;78.48;95786.16;6187469;23;20261;-87
2023/01/26 09:55:05;;;;;;;13.83;9.57;;;;;;;2.24;78.65;95789.13;6187732;23;20346;-87
2023/01/26 09:57:49;;;;;;;13.97;8.80;;;;;;;2.14;79.09;95784.88;6188170;23;20213;-88
2023/01/26 10:00:23;;;;;;;12.73;8.47;;;;;;;2.13;79.33;95784.06;6188590;23;20214;-87
2023/01/26 10:03:30;;;;;;;12.10;8.37;;;;;;;2.10;79.69;95771.66;6188731;23;20189;-88
2023/01/26 10:06:20;;;;;;;13.37;8.83;;;;;;;2.08;79.39;95776.84;6188196;23;20197;-88
2023/01/26 10:08:49;;;;;;;12.10;7.93;;;;;;;2.02;79.65;95777.31;6188237;23;20175;-87
2023/01/26 10:11:27;;;;;;;13.20;8.93;;;;;;;2.04;82.02;95772.13;6188084;23;20178;-88
2023/01/26 10:13:57;;;;;;;12.73;9.27;;;;;;;2.07;80.40;95770.16;6188413;23;20151;-87
2023/01/26 10:16:26;;;;;;;13.63;8.93;;;;;;;2.17;80.37;95777.84;6190015;23;20292;-87
2023/01/26 10:19:04;;;;;;;14.37;9.00;;;;;;;2.23;79.85;95759.59;6188971;23;20178;-87
2023/01/26 10:21:37;;;;;;;13.90;8.73;;;;;;;2.24;78.46;95760.38;6189191;23;20633;-87
2023/01/26 10:24:04;;;;;;;13.87;9.17;;;;;;;2.28;78.91;95769.38;6188113;23;20237;-88
2023/01/26 10:26:32;;;;;;;14.53;9.57;;;;;;;2.25;78.57;95774.72;6187667;23;20194;-87
2023/01/26 10:29:00;;;;;;;14.00;9.47;;;;;;;2.21;78.68;95768.25;6186941;23;20377;-87
2023/01/26 10:31:29;;;;;;;14.90;9.00;;;;;;;2.19;78.52;95763.28;6189346;23;20177;-87
2023/01/26 10:34:10;;;;;;;13.40;8.80;;;;;;;2.29;78.62;95748.16;6188977;23;20171;-87
2023/01/26 10:36:48;;;;;;;12.90;8.40;;;;;;;2.33;78.35;95759.66;6187033;23;20281;-88
2023/01/26 10:39:40;;;;;;;12.77;8.90;;;;;;;2.32;78.18;95752.94;6188292;23;20185;-88
2023/01/26 10:42:20;;;;;;;11.20;8.27;;;;;;;2.29;77.74;95755.75;6186691;23;20669;-87
2023/01/26 10:45:01;;;;;;;11.63;7.73;;;;;;;2.32;77.78;95747.88;6187975;23;20162;-88
2023/01/26 10:47:29;;;;;;;12.60;8.07;;;;;;;2.31;76.69;95749.59;6190195;23;20220;-87
2023/01/26 10:50:27;;;;;;;13.23;8.60;;;;;;;2.27;77.10;95752.53;6188894;23;20185;-87
2023/01/26 10:53:03;;;;;;;12.53;8.47;;;;;;;2.29;76.85;95753.22;6189161;23;20190;-87
2023/01/26 10:55:36;;;;;;;12.47;8.63;;;;;;;2.34;77.25;95746.81;6190215;23;20185;-87
2023/01/26 10:58:06;;;;;;;13.77;9.03;;;;;;;2.40;77.22;95750.63;6188287;23;20545;-88
2023/01/26 11:00:35;;;;;;;38.63;23.23;;;;;;;2.42;76.91;95749.56;6189175;23;20221;-88
2023/01/26 11:03:15;;;;;;;23.53;15.53;;;;;;;2.35;76.66;95742.56;6187886;23;20176;-87
2023/01/26 11:05:43;;;;;;;12.40;9.60;;;;;;;2.32;76.54;95742.78;6187923;23;20166;-87
2023/01/26 11:08:43;;;;;;;14.93;10.40;;;;;;;2.32;76.73;95733.44;6188064;23;20194;-87
2023/01/26 11:11:29;;;;;;;12.40;8.80;;;;;;;2.33;75.84;95729.97;6187332;23;20190;-88
2023/01/26 11:14:32;;;;;;;12.57;7.80;;;;;;;2.35;75.65;95733.19;6186160;23;20309;-88
2023/01/26 11:17:24;;;;;;;13.10;8.77;;;;;;;2.31;76.41;95733.59;6185232;23;20583;-89
2023/01/26 11:20:28;;;;;;;12.87;8.93;;;;;;;2.34;76.59;95733.31;6186791;23;20173;-89
2023/01/26 11:23:12;;;;;;;14.40;9.03;;;;;;;2.41;76.79;95735.25;6187570;23;20174;-88
2023/01/26 11:25:54;;;;;;;13.30;8.63;;;;;;;2.48;76.81;95742.41;6158440;23;20166;-89
2023/01/26 11:28:52;;;;;;;12.13;8.97;;;;;;;2.53;76.90;95742.81;6157140;23;20182;-87
2023/01/26 11:31:34;;;;;;;12.60;8.27;;;;;;;2.51;76.06;95748.00;6158038;23;20159;-86
2023/01/26 11:34:13;;;;;;;50.27;33.67;;;;;;;2.43;75.95;95741.03;6157291;23;20273;-88
2023/01/26 11:36:52;;;;;;;21.03;13.97;;;;;;;2.38;82.18;95735.50;6156772;23;20557;-88
2023/01/26 11:39:28;;;;;;;20.07;14.07;;;;;;;2.49;78.35;95736.38;6157414;23;20182;-86
2023/01/26 11:42:13;;;;;;;17.43;10.27;;;;;;;2.53;77.38;95732.66;6158507;23;20485;-89
2023/01/26 11:45:21;;;;;;;12.57;8.93;;;;;;;2.47;76.65;95730.63;6156123;23;20560;-86
2023/01/26 11:48:06;;;;;;;12.80;8.10;;;;;;;2.50;76.68;95732.91;6152712;23;20741;-88
2023/01/26 11:50:40;;;;;;;11.90;8.13;;;;;;;2.49;76.32;95731.31;6152790;23;20171;-88
2023/01/26 11:53:32;;;;;;;10.37;7.97;;;;;;;2.42;76.44;95723.34;6152202;23;20262;-89
2023/01/26 11:56:40;;;;;;;;;;;;;;;;;;;;;
2023/01/26 12:02:27;;;;;;;12.23;8.37;;;;;;;2.43;75.92;95723.25;6141512;23;20258;-87
2023/01/26 12:04:55;;;;;;;12.50;8.17;;;;;;;2.46;76.04;95721.38;6153864;23;20168;-88
2023/01/26 12:07:30;;;;;;;12.00;8.20;;;;;;;2.50;75.99;95720.22;6152091;23;20195;-87
2023/01/26 12:10:35;;;;;;;10.10;8.10;;;;;;;2.51;76.72;95722.59;6155265;23;20210;-89
2023/01/26 12:13:29;;;;;;;13.70;9.87;;;;;;;2.47;76.07;95706.00;6158725;23;20182;-88
2023/01/26 12:16:04;;;;;;;18.33;13.07;;;;;;;2.49;75.35;95713.53;6157222;23;20182;-86
2023/01/26 12:18:39;;;;;;;18.67;13.03;;;;;;;2.46;75.40;95708.69;6158074;23;20151;-87
2023/01/26 12:21:11;;;;;;;14.57;9.17;;;;;;;2.44;74.77;95701.19;6158012;23;20155;-88
2023/01/26 12:27:38;;;;;;;11.90;8.07;;;;;;;2.36;75.36;95693.34;6112647;23;20194;-87
2023/01/26 12:37:52;;;;;;;12.37;8.53;;;;;;;2.24;75.88;95691.81;5948822;23;20253;-88
2023/01/26 12:53:29;;;;;;;14.47;9.00;;;;;;;2.21;76.24;95685.25;6064558;23;20201;-89
2023/01/26 12:58:56;;;;;;;12.33;9.33;;;;;;;2.23;76.06;95693.53;6182088;23;20202;-87
2023/01/26 13:02:16;;;;;;;15.07;9.87;;;;;;;2.29;76.29;95698.16;6187125;23;20206;-87
2023/01/26 13:21:20;;;;;;;;;;;;;;;;;;;;;
2023/01/26 13:24:19;;;;;;;14.40;9.83;;;;;;;2.38;75.65;95674.53;6148903;23;20222;-87
2023/01/26 13:37:03;;;;;;;13.23;8.83;;;;;;;2.44;74.65;95683.38;6069112;23;20212;-88
2023/01/26 13:50:42;;;;;;;11.53;8.80;;;;;;;2.41;74.96;95678.56;5912906;24;20184;-88
2023/01/26 14:08:01;;;;;;;;;;;;;;;;;;;;;
2023/01/26 14:17:40;;;;;;;;;;;;;;;;;;;;;
2023/01/26 14:27:07;;;;;;;14.67;9.00;;;;;;;2.24;73.35;95684.19;5948087;23;20289;-88
2023/01/26 14:43:36;;;;;;;13.40;9.23;;;;;;;2.21;73.69;95680.16;6125377;23;20193;-87